Time;durP1;ratioP1;P1;durP2;ratioP2;P2;SDS_P1;SDS_P2;PMS_P1;PMS_P2;Temp;Humidity;BMP_temperature;BMP_pressure;BME280_temperature;BME280_humidity;BME280_pressure;Samples;Min_cycle;Max_cycle;Signal;HPM_P1;HPM_P2
2023/09/11 00:01:58;;;;;;;108.30;57.85;;;23.40;86.50;;;;;;4972751;28;94411;-85
2023/09/11 00:04:24;;;;;;;107.60;57.65;;;23.40;86.60;;;;;;4967102;28;96226;-86
2023/09/11 00:06:49;;;;;;;108.88;57.72;;;23.30;87.00;;;;;;4974662;28;95615;-83
2023/09/11 00:09:15;;;;;;;109.03;58.03;;;23.30;86.90;;;;;;4972182;28;96512;-84
2023/09/11 00:11:40;;;;;;;107.35;57.47;;;23.30;87.00;;;;;;4969057;28;95378;-84
2023/09/11 00:14:06;;;;;;;107.63;57.72;;;23.30;87.00;;;;;;4957016;28;98029;-85
2023/09/11 00:16:32;;;;;;;108.05;57.50;;;23.30;87.50;;;;;;4969921;28;97596;-86
2023/09/11 00:18:57;;;;;;;107.32;57.55;;;23.20;87.20;;;;;;4952860;28;94413;-86
2023/09/11 00:21:23;;;;;;;110.07;57.88;;;23.20;87.20;;;;;;4966686;28;94149;-85
2023/09/11 00:23:49;;;;;;;107.68;57.50;;;23.20;87.50;;;;;;4971962;28;95025;-86
2023/09/11 00:26:15;;;;;;;110.55;59.22;;;23.20;88.50;;;;;;4973112;28;96862;-86
2023/09/11 00:28:40;;;;;;;111.00;58.92;;;23.10;87.20;;;;;;4971361;28;96165;-86
2023/09/11 00:31:06;;;;;;;110.07;58.20;;;23.20;87.40;;;;;;4955055;28;94699;-85
2023/09/11 00:33:32;;;;;;;107.55;57.50;;;23.10;87.70;;;;;;4972683;28;95895;-85
2023/09/11 00:35:57;;;;;;;107.68;57.50;;;23.10;88.20;;;;;;4973228;28;98354;-84
2023/09/11 00:38:23;;;;;;;110.90;58.90;;;23.10;88.10;;;;;;4972375;28;96307;-84
2023/09/11 00:40:48;;;;;;;109.25;58.13;;;23.10;87.70;;;;;;4952019;28;95009;-85
2023/09/11 00:43:14;;;;;;;108.38;57.33;;;23.10;88.10;;;;;;4973953;28;96763;-84
2023/09/11 00:45:40;;;;;;;108.13;57.40;;;23.10;88.10;;;;;;4976387;28;94946;-85
2023/09/11 00:48:06;;;;;;;108.80;57.50;;;23.00;88.20;;;;;;4963316;28;94480;-85
2023/09/11 00:50:32;;;;;;;107.97;57.90;;;23.00;88.30;;;;;;4977709;28;96021;-85
2023/09/11 00:52:58;;;;;;;108.97;58.33;;;23.00;88.20;;;;;;4973609;28;99148;-84
2023/09/11 00:55:26;;;;;;;110.03;58.50;;;23.00;88.20;;;;;;4975110;28;95590;-86
2023/09/11 00:57:51;;;;;;;107.40;57.38;;;23.00;88.10;;;;;;4973726;28;94416;-85
2023/09/11 01:00:18;;;;;;;109.43;58.67;;;23.00;88.60;;;;;;4981408;28;95183;-85
2023/09/11 01:02:43;;;;;;;108.38;58.10;;;23.00;88.30;;;;;;4976615;28;95102;-85
2023/09/11 01:05:09;;;;;;;107.85;57.90;;;22.90;88.40;;;;;;4976869;28;95147;-84
2023/09/11 01:07:35;;;;;;;110.05;58.70;;;22.90;88.40;;;;;;4976701;28;94425;-85
2023/09/11 01:10:05;;;;;;;108.97;58.75;;;22.90;88.40;;;;;;4955295;28;94336;-85
2023/09/11 01:12:33;;;;;;;108.73;58.10;;;22.90;88.50;;;;;;4974942;28;95491;-86
2023/09/11 01:14:59;;;;;;;107.93;58.22;;;22.90;88.70;;;;;;4972902;28;97643;-85
2023/09/11 01:17:33;;;;;;;108.55;57.78;;;22.90;89.40;;;;;;4973962;28;94996;-86
2023/09/11 01:20:21;;;;;;;113.68;59.05;;;22.90;89.40;;;;;;4953301;28;94468;-86
2023/09/11 01:23:18;;;;;;;108.72;57.92;;;22.80;88.70;;;;;;4966245;28;99746;-86
2023/09/11 01:26:01;;;;;;;108.35;58.38;;;22.80;88.60;;;;;;4972256;28;97879;-86
2023/09/11 01:28:52;;;;;;;109.80;58.13;;;22.80;88.90;;;;;;4968504;28;94580;-85
2023/09/11 01:31:18;;;;;;;107.70;57.72;;;22.80;89.30;;;;;;4970363;28;95586;-85
2023/09/11 01:33:44;;;;;;;110.38;58.33;;;22.80;89.40;;;;;;4971466;28;95741;-85
2023/09/11 01:36:09;;;;;;;108.45;57.95;;;22.80;89.30;;;;;;4971323;28;94794;-87
2023/09/11 01:38:35;;;;;;;107.57;57.80;;;22.80;89.20;;;;;;4969034;28;96739;-85
2023/09/11 01:41:03;;;;;;;109.28;58.42;;;22.70;89.40;;;;;;4950581;28;94819;-85
2023/09/11 01:43:35;;;;;;;108.53;57.33;;;22.70;89.70;;;;;;4968003;28;97471;-86
2023/09/11 01:46:02;;;;;;;108.28;57.90;;;22.70;89.60;;;;;;4948506;28;99040;-86
2023/09/11 01:48:31;;;;;;;107.55;57.95;;;22.70;89.80;;;;;;4953581;28;94470;-86
2023/09/11 01:50:57;;;;;;;107.10;57.42;;;22.70;89.90;;;;;;4950891;28;95068;-86
2023/09/11 01:53:23;;;;;;;106.95;57.45;;;22.70;89.90;;;;;;4972945;28;97426;-83
2023/09/11 01:55:48;;;;;;;107.25;57.42;;;22.70;89.90;;;;;;4958363;28;97973;-87
2023/09/11 01:58:14;;;;;;;107.68;57.83;;;22.60;89.90;;;;;;4974555;28;95226;-85
2023/09/11 02:00:40;;;;;;;107.40;57.50;;;22.60;90.00;;;;;;4957577;28;94551;-86
2023/09/11 02:03:05;;;;;;;109.05;58.00;;;22.60;90.10;;;;;;4973316;28;95363;-85
2023/09/11 02:05:31;;;;;;;107.70;57.92;;;22.60;90.00;;;;;;4973933;28;95711;-84
2023/09/11 02:07:57;;;;;;;106.55;57.30;;;22.60;90.10;;;;;;4978428;28;96451;-85
2023/09/11 02:10:22;;;;;;;108.45;57.63;;;22.60;90.20;;;;;;4993787;28;94770;-87
2023/09/11 02:12:48;;;;;;;107.85;57.95;;;22.50;90.10;;;;;;4994619;28;95189;-89
2023/09/11 02:15:14;;;;;;;107.65;57.65;;;22.50;90.30;;;;;;4993727;28;96030;-87
2023/09/11 02:17:39;;;;;;;107.78;57.67;;;22.50;90.20;;;;;;4964978;28;94579;-85
2023/09/11 02:20:05;;;;;;;108.65;58.45;;;22.50;90.30;;;;;;4978452;28;94896;-84
2023/09/11 02:22:31;;;;;;;107.32;57.38;;;22.50;90.40;;;;;;4978549;28;96975;-85
2023/09/11 02:24:57;;;;;;;107.28;57.70;;;22.40;90.40;;;;;;4975811;28;98054;-85
2023/09/11 02:27:22;;;;;;;108.05;58.58;;;22.40;90.40;;;;;;4976061;28;95399;-85
2023/09/11 02:29:48;;;;;;;107.20;57.50;;;22.40;90.50;;;;;;4976037;28;94938;-85
2023/09/11 02:32:13;;;;;;;109.25;58.70;;;22.40;90.40;;;;;;4974012;28;97078;-85
2023/09/11 02:34:39;;;;;;;108.40;58.45;;;22.30;90.50;;;;;;4960631;28;98646;-85
2023/09/11 02:37:04;;;;;;;108.47;58.30;;;22.30;90.50;;;;;;4974953;28;95392;-86
2023/09/11 02:39:30;;;;;;;107.65;57.95;;;22.30;90.60;;;;;;4977216;28;94220;-86
2023/09/11 02:41:56;;;;;;;109.30;58.65;;;22.30;90.70;;;;;;4954958;28;98424;-86
2023/09/11 02:44:21;;;;;;;108.40;58.08;;;22.30;90.50;;;;;;4974555;28;96666;-86
2023/09/11 02:46:47;;;;;;;107.68;57.95;;;22.20;90.90;;;;;;4974356;28;94487;-86
2023/09/11 02:49:12;;;;;;;107.90;57.92;;;22.20;90.80;;;;;;4975294;28;93784;-87
2023/09/11 02:51:38;;;;;;;108.72;58.53;;;22.20;90.60;;;;;;4952685;28;100220;-85
2023/09/11 02:54:04;;;;;;;107.28;57.45;;;22.20;90.70;;;;;;4969588;28;95085;-85
2023/09/11 02:56:29;;;;;;;109.22;58.53;;;22.20;91.20;;;;;;4970741;28;95414;-87
2023/09/11 02:58:56;;;;;;;108.53;58.30;;;22.20;90.70;;;;;;4954888;28;96311;-85
2023/09/11 03:01:21;;;;;;;108.15;58.13;;;22.10;90.90;;;;;;4979332;28;95809;-85
2023/09/11 03:03:47;;;;;;;109.07;58.83;;;22.10;90.80;;;;;;4971822;28;95036;-85
2023/09/11 03:06:13;;;;;;;106.82;57.30;;;22.10;90.80;;;;;;4987504;28;94469;-87
2023/09/11 03:08:38;;;;;;;108.57;58.38;;;22.10;91.00;;;;;;4987782;28;95448;-89
2023/09/11 03:11:06;;;;;;;107.25;57.67;;;22.10;91.10;;;;;;4989567;28;94442;-89
2023/09/11 03:13:32;;;;;;;109.55;58.72;;;22.10;91.00;;;;;;4980822;28;94681;-89
2023/09/11 03:16:07;;;;;;;106.55;57.50;;;22.10;91.00;;;;;;4984817;28;94687;-86
2023/09/11 03:18:33;;;;;;;107.32;57.70;;;22.00;91.10;;;;;;4979759;28;94396;-89
2023/09/11 03:20:58;;;;;;;110.68;59.35;;;22.00;91.00;;;;;;4977565;28;95584;-89
2023/09/11 03:23:24;;;;;;;107.28;57.45;;;22.00;91.10;;;;;;4981052;28;95936;-87
2023/09/11 03:25:50;;;;;;;106.40;57.53;;;22.00;91.30;;;;;;4981419;28;95884;-86
2023/09/11 03:28:15;;;;;;;107.53;57.45;;;22.00;91.30;;;;;;5013604;22;94329;-40
2023/09/11 03:30:41;;;;;;;108.65;58.13;;;22.00;91.20;;;;;;4961091;28;94558;-39
2023/09/11 03:33:06;;;;;;;108.95;58.72;;;22.00;91.20;;;;;;4965154;28;94946;-40
2023/09/11 03:35:32;;;;;;;107.35;56.97;;;22.00;91.00;;;;;;4964416;28;95270;-40
2023/09/11 03:37:57;;;;;;;108.18;57.55;;;22.00;91.30;;;;;;4972114;28;94134;-39
2023/09/11 03:40:23;;;;;;;106.43;57.15;;;21.90;91.40;;;;;;4958495;28;94959;-39
2023/09/11 03:42:49;;;;;;;107.75;57.95;;;21.90;91.30;;;;;;4970201;28;95052;-40
2023/09/11 03:45:14;;;;;;;110.63;59.00;;;21.90;91.60;;;;;;4958259;28;95822;-41
2023/09/11 03:47:41;;;;;;;107.78;57.50;;;21.90;91.20;;;;;;4969858;28;94650;-39
2023/09/11 03:50:07;;;;;;;107.18;57.53;;;21.90;91.80;;;;;;4959915;28;95112;-39
2023/09/11 03:52:33;;;;;;;107.47;57.92;;;21.90;91.70;;;;;;4967035;28;94715;-40
2023/09/11 03:54:58;;;;;;;108.82;58.22;;;21.90;91.50;;;;;;4971275;28;94752;-41
2023/09/11 03:57:24;;;;;;;107.38;57.95;;;21.80;91.40;;;;;;4965766;28;94979;-40
2023/09/11 03:59:49;;;;;;;108.95;59.00;;;21.80;91.70;;;;;;4969968;28;96945;-39
2023/09/11 04:02:15;;;;;;;107.80;57.97;;;21.80;91.40;;;;;;4963160;28;93890;-39
2023/09/11 04:04:40;;;;;;;107.15;57.28;;;21.80;91.60;;;;;;4971175;28;96862;-40
2023/09/11 04:07:06;;;;;;;108.60;58.53;;;21.80;91.60;;;;;;4967049;28;98044;-41
2023/09/11 04:09:32;;;;;;;107.72;57.85;;;21.80;91.50;;;;;;4969995;28;97242;-40
2023/09/11 04:12:02;;;;;;;108.15;58.15;;;21.80;91.50;;;;;;4969055;28;96154;-40
2023/09/11 04:14:28;;;;;;;107.30;58.03;;;21.80;91.40;;;;;;4974642;28;96568;-42
2023/09/11 04:16:53;;;;;;;108.43;58.42;;;21.80;91.80;;;;;;4963160;28;97502;-41
2023/09/11 04:19:19;;;;;;;110.40;58.55;;;21.80;91.50;;;;;;4967886;28;95422;-41
2023/09/11 04:21:44;;;;;;;107.93;58.03;;;21.80;91.40;;;;;;4965809;28;97571;-43
2023/09/11 04:24:12;;;;;;;109.07;58.92;;;21.70;91.50;;;;;;4967642;28;95666;-40
2023/09/11 04:26:42;;;;;;;108.00;57.80;;;21.70;91.70;;;;;;4966553;28;94515;-41
2023/09/11 04:29:11;;;;;;;107.95;58.05;;;21.70;91.70;;;;;;4963089;28;96032;-41
2023/09/11 04:31:37;;;;;;;108.95;58.20;;;21.70;91.60;;;;;;4968913;28;96015;-42
2023/09/11 04:34:03;;;;;;;108.60;58.42;;;21.70;91.50;;;;;;4964510;28;95947;-40
2023/09/11 04:36:29;;;;;;;107.18;57.22;;;21.70;91.50;;;;;;4971569;28;96168;-41
2023/09/11 04:38:55;;;;;;;109.07;58.08;;;21.70;92.00;;;;;;4970743;28;96896;-42
2023/09/11 04:41:21;;;;;;;109.13;59.03;;;21.70;91.60;;;;;;4968769;28;95152;-41
2023/09/11 04:43:46;;;;;;;110.53;60.30;;;21.70;91.70;;;;;;4958157;28;95188;-40
2023/09/11 04:46:12;;;;;;;107.53;58.28;;;21.60;91.80;;;;;;4969299;28;96860;-40
2023/09/11 04:48:38;;;;;;;110.13;58.60;;;21.60;91.60;;;;;;4974798;28;96029;-43
2023/09/11 04:51:04;;;;;;;107.78;58.15;;;21.60;91.80;;;;;;4967858;28;94615;-42
2023/09/11 04:53:30;;;;;;;107.90;58.58;;;21.60;91.70;;;;;;4969293;28;94719;-41
2023/09/11 04:55:56;;;;;;;109.00;58.88;;;21.60;91.60;;;;;;4945029;28;98297;-40
2023/09/11 04:58:22;;;;;;;107.80;58.40;;;21.60;91.80;;;;;;4971592;28;96260;-41
2023/09/11 05:00:47;;;;;;;108.63;58.45;;;21.60;92.00;;;;;;4948031;28;97961;-46
2023/09/11 05:03:13;;;;;;;108.88;58.55;;;21.50;91.80;;;;;;4972079;28;101096;-43
2023/09/11 05:05:40;;;;;;;107.82;57.63;;;21.50;91.80;;;;;;4967900;28;96457;-40
2023/09/11 05:08:07;;;;;;;106.55;56.95;;;21.50;93.10;;;;;;4965978;28;100216;-40
2023/09/11 05:10:33;;;;;;;106.20;56.60;;;21.60;94.30;;;;;;4963516;28;95036;-40
2023/09/11 05:12:59;;;;;;;105.80;56.65;;;21.70;94.10;;;;;;4966583;28;95440;-41
2023/09/11 05:15:24;;;;;;;105.32;56.55;;;21.70;94.00;;;;;;4964373;28;96686;-44
2023/09/11 05:17:50;;;;;;;107.22;56.47;;;21.80;94.00;;;;;;4969271;28;100138;-41
2023/09/11 05:20:16;;;;;;;105.68;56.70;;;21.80;93.90;;;;;;4966282;28;99181;-40
2023/09/11 05:22:42;;;;;;;106.65;56.78;;;21.80;93.90;;;;;;4948557;28;100241;-39
2023/09/11 05:25:08;;;;;;;106.43;56.90;;;21.80;93.80;;;;;;4967441;28;96417;-40
2023/09/11 05:27:34;;;;;;;107.13;57.13;;;21.80;93.80;;;;;;4969561;28;95614;-40
2023/09/11 05:29:59;;;;;;;106.75;57.33;;;21.80;93.70;;;;;;4958942;28;95667;-40
2023/09/11 05:32:25;;;;;;;106.50;56.97;;;21.80;93.70;;;;;;4957949;28;95860;-41
2023/09/11 05:34:52;;;;;;;107.07;57.55;;;21.80;93.80;;;;;;4971553;28;95781;-41
2023/09/11 05:37:18;;;;;;;106.22;57.28;;;21.70;93.80;;;;;;4965612;28;96976;-41
2023/09/11 05:39:44;;;;;;;106.32;57.25;;;21.70;93.90;;;;;;4971109;28;95046;-41
2023/09/11 05:42:10;;;;;;;106.78;57.38;;;21.70;93.90;;;;;;4966700;28;95151;-40
2023/09/11 05:44:36;;;;;;;106.47;57.22;;;21.70;94.00;;;;;;4969922;28;95141;-40
2023/09/11 05:47:03;;;;;;;106.43;57.15;;;21.70;94.00;;;;;;4963367;28;96572;-40
2023/09/11 05:49:28;;;;;;;107.50;57.03;;;21.80;94.00;;;;;;4963875;28;94975;-41
2023/09/11 05:51:55;;;;;;;106.30;57.22;;;21.70;93.90;;;;;;4961476;28;95210;-42
2023/09/11 05:54:20;;;;;;;106.85;57.40;;;21.80;93.90;;;;;;4961599;28;95634;-40
2023/09/11 05:56:46;;;;;;;107.22;57.70;;;21.80;94.10;;;;;;4971183;28;95687;-41
2023/09/11 05:59:12;;;;;;;106.10;57.22;;;21.80;93.80;;;;;;4962998;28;94883;-41
2023/09/11 06:01:37;;;;;;;106.57;57.42;;;21.80;93.80;;;;;;4966689;28;95573;-41
2023/09/11 06:04:03;;;;;;;107.07;57.65;;;21.80;93.80;;;;;;4974508;28;94268;-40
2023/09/11 06:06:30;;;;;;;106.53;57.53;;;21.80;94.20;;;;;;4968952;28;97903;-40
2023/09/11 06:08:57;;;;;;;107.97;57.75;;;21.80;93.80;;;;;;4967723;28;95623;-41
2023/09/11 06:11:23;;;;;;;107.65;57.88;;;21.80;93.70;;;;;;4964162;28;97336;-41
2023/09/11 06:13:49;;;;;;;106.45;57.38;;;21.80;93.60;;;;;;4965239;28;98064;-42
2023/09/11 06:16:14;;;;;;;107.05;57.70;;;21.80;93.50;;;;;;4963678;28;95802;-40
2023/09/11 06:18:40;;;;;;;107.53;57.92;;;21.80;93.50;;;;;;4965945;28;96235;-42
2023/09/11 06:21:06;;;;;;;108.15;57.92;;;21.90;93.50;;;;;;4961303;28;94772;-40
2023/09/11 06:23:31;;;;;;;107.03;57.70;;;21.90;93.50;;;;;;4968692;28;96768;-44
2023/09/11 06:25:57;;;;;;;108.43;58.08;;;21.90;93.30;;;;;;4964478;28;97353;-41
2023/09/11 06:28:22;;;;;;;107.60;57.67;;;21.90;93.30;;;;;;4972593;28;99704;-39
2023/09/11 06:30:48;;;;;;;106.60;57.97;;;21.90;93.20;;;;;;4965140;28;97939;-40
2023/09/11 06:33:14;;;;;;;107.20;57.97;;;21.90;93.20;;;;;;4970775;28;94815;-39
2023/09/11 06:35:39;;;;;;;108.07;58.25;;;21.90;93.30;;;;;;4961432;28;97062;-40
2023/09/11 06:38:05;;;;;;;107.43;58.08;;;21.90;93.30;;;;;;4971385;28;96043;-41
2023/09/11 06:40:30;;;;;;;107.05;57.85;;;21.80;93.20;;;;;;4961414;28;95170;-40
2023/09/11 06:42:57;;;;;;;107.50;57.97;;;21.80;93.00;;;;;;4966117;28;95408;-41
2023/09/11 06:45:22;;;;;;;107.50;58.13;;;21.80;92.90;;;;;;4970697;28;95360;-43
2023/09/11 06:47:48;;;;;;;107.82;58.28;;;21.80;93.10;;;;;;4963151;28;95403;-44
2023/09/11 06:50:14;;;;;;;107.65;58.00;;;21.80;93.10;;;;;;4968316;28;95000;-40
2023/09/11 06:52:40;;;;;;;108.28;58.20;;;21.80;93.10;;;;;;4961280;28;94399;-41
2023/09/11 06:55:09;;;;;;;106.55;57.83;;;21.80;93.10;;;;;;4970564;28;95463;-42
2023/09/11 06:57:35;;;;;;;107.15;57.83;;;21.80;92.60;;;;;;4963379;28;95700;-41
2023/09/11 07:00:08;;;;;;;106.70;57.63;;;21.80;93.30;;;;;;4966405;28;97197;-41
2023/09/11 07:02:33;;;;;;;108.25;57.55;;;21.80;92.60;;;;;;4966773;28;94762;-40
2023/09/11 07:04:59;;;;;;;108.47;58.35;;;21.80;93.20;;;;;;4963802;28;95599;-40
2023/09/11 07:07:25;;;;;;;109.05;58.47;;;21.80;92.20;;;;;;4971087;28;95014;-40
2023/09/11 07:09:51;;;;;;;108.30;57.78;;;21.80;92.90;;;;;;4963134;28;95207;-41
2023/09/11 07:12:20;;;;;;;107.93;58.42;;;21.80;92.90;;;;;;4969793;28;100627;-40
2023/09/11 07:14:46;;;;;;;108.45;58.45;;;21.90;92.30;;;;;;4957343;28;100635;-42
2023/09/11 07:17:11;;;;;;;107.50;58.05;;;21.90;92.60;;;;;;4965773;28;95869;-41
2023/09/11 07:19:37;;;;;;;107.70;57.75;;;21.90;92.20;;;;;;4963122;28;95626;-40
2023/09/11 07:22:03;;;;;;;106.47;57.42;;;21.90;92.60;;;;;;4970377;28;94897;-41
2023/09/11 07:24:28;;;;;;;107.15;57.90;;;21.90;92.40;;;;;;4957858;28;96247;-40
2023/09/11 07:26:54;;;;;;;108.25;58.15;;;21.90;92.20;;;;;;4966972;28;95241;-42
2023/09/11 07:29:24;;;;;;;107.50;57.67;;;21.90;92.40;;;;;;4964457;28;95627;-41
2023/09/11 07:31:49;;;;;;;108.13;58.42;;;22.00;92.30;;;;;;4962869;28;95265;-41
2023/09/11 07:34:15;;;;;;;110.97;58.60;;;22.00;91.80;;;;;;4968008;28;94722;-42
2023/09/11 07:36:41;;;;;;;107.88;58.33;;;22.00;92.00;;;;;;4974880;28;96503;-40
2023/09/11 07:39:06;;;;;;;107.43;58.17;;;22.00;91.60;;;;;;4974946;28;97277;-40
2023/09/11 07:41:32;;;;;;;109.68;59.08;;;22.00;91.20;;;;;;4966913;28;94583;-39
2023/09/11 07:43:58;;;;;;;107.90;57.97;;;22.00;90.70;;;;;;4968498;28;95455;-40
2023/09/11 07:46:28;;;;;;;108.85;58.78;;;22.00;91.30;;;;;;4965498;28;96048;-40
2023/09/11 07:48:54;;;;;;;107.60;57.78;;;22.10;91.40;;;;;;4966781;28;95657;-41
2023/09/11 07:51:19;;;;;;;109.38;58.70;;;22.20;91.50;;;;;;4967863;28;94862;-42
2023/09/11 07:53:45;;;;;;;108.40;57.83;;;22.20;91.20;;;;;;4966278;28;95165;-42
2023/09/11 07:56:11;;;;;;;107.13;58.05;;;22.20;91.70;;;;;;4967329;28;99510;-40
2023/09/11 07:58:38;;;;;;;107.70;58.17;;;22.20;91.60;;;;;;4965695;28;97212;-41
2023/09/11 08:01:04;;;;;;;108.38;58.33;;;22.30;91.80;;;;;;4970869;28;95074;-42
2023/09/11 08:03:33;;;;;;;111.97;60.10;;;22.30;90.90;;;;;;4966906;28;95371;-42
2023/09/11 08:06:04;;;;;;;114.65;60.08;;;22.30;90.10;;;;;;4971664;28;96000;-42
2023/09/11 08:08:30;;;;;;;111.68;60.25;;;22.30;90.10;;;;;;4966303;28;95984;-40
2023/09/11 08:10:55;;;;;;;112.30;60.00;;;22.40;90.00;;;;;;4968903;28;96583;-43
2023/09/11 08:13:21;;;;;;;107.65;58.25;;;22.40;90.00;;;;;;4962593;28;95702;-40
2023/09/11 08:15:47;;;;;;;111.28;59.85;;;22.40;90.60;;;;;;4969795;28;95795;-43
2023/09/11 08:18:12;;;;;;;108.15;57.95;;;22.50;90.00;;;;;;4973425;28;95871;-41
2023/09/11 08:20:44;;;;;;;109.20;58.72;;;22.50;90.90;;;;;;4963892;28;95306;-42
2023/09/11 08:23:10;;;;;;;107.50;58.08;;;22.50;90.70;;;;;;4972437;28;95399;-41
2023/09/11 08:25:35;;;;;;;108.55;58.40;;;22.60;90.50;;;;;;4963847;28;96035;-40
2023/09/11 08:28:01;;;;;;;113.78;60.15;;;22.60;90.60;;;;;;4971073;28;95146;-40
2023/09/11 08:30:26;;;;;;;108.75;58.22;;;22.70;89.40;;;;;;4967093;28;96302;-40
2023/09/11 08:32:52;;;;;;;108.75;58.50;;;22.70;90.70;;;;;;4974303;28;94925;-42
2023/09/11 08:35:17;;;;;;;107.95;57.95;;;22.70;90.20;;;;;;4971849;28;94629;-40
2023/09/11 08:37:43;;;;;;;108.38;58.15;;;22.80;90.70;;;;;;4962414;28;95694;-40
2023/09/11 08:40:09;;;;;;;109.07;58.95;;;22.80;90.50;;;;;;4968430;28;95023;-40
2023/09/11 08:42:35;;;;;;;108.40;58.25;;;22.80;89.40;;;;;;4967331;28;97633;-42
2023/09/11 08:45:00;;;;;;;109.18;58.70;;;22.80;90.00;;;;;;4970514;28;95153;-42
2023/09/11 08:47:30;;;;;;;111.93;60.25;;;22.90;89.70;;;;;;4967438;28;96927;-41
2023/09/11 08:49:59;;;;;;;110.68;59.63;;;22.90;89.30;;;;;;4971108;28;95441;-41
2023/09/11 08:52:27;;;;;;;110.45;59.35;;;23.00;88.30;;;;;;4974818;28;97002;-40
2023/09/11 08:54:57;;;;;;;109.30;58.97;;;23.00;88.40;;;;;;4966120;28;97004;-40
2023/09/11 08:57:26;;;;;;;109.07;57.93;;;23.00;88.30;;;;;;4969735;28;94806;-40
2023/09/11 08:59:56;;;;;;;109.93;58.90;;;23.10;89.50;;;;;;4963588;28;95269;-40
2023/09/11 09:02:23;;;;;;;109.82;58.90;;;23.10;88.10;;;;;;4968507;28;96151;-41
2023/09/11 09:04:49;;;;;;;109.97;59.13;;;23.10;87.70;;;;;;4965469;28;95168;-40
2023/09/11 09:07:16;;;;;;;109.55;58.67;;;23.20;87.50;;;;;;4969419;28;96459;-40
2023/09/11 09:09:43;;;;;;;110.05;58.45;;;23.20;87.10;;;;;;4968152;28;94843;-42
2023/09/11 09:12:09;;;;;;;109.63;58.80;;;23.30;87.70;;;;;;4968583;28;95657;-40
2023/09/11 09:14:38;;;;;;;109.55;58.80;;;23.30;87.60;;;;;;4970625;28;96612;-41
2023/09/11 09:17:03;;;;;;;108.35;57.83;;;23.30;87.00;;;;;;4961401;28;95272;-42
2023/09/11 09:19:29;;;;;;;110.35;59.05;;;23.30;87.50;;;;;;4968111;28;94282;-41
2023/09/11 09:22:06;;;;;;;108.80;58.10;;;23.40;87.10;;;;;;4965872;28;96042;-40
2023/09/11 09:24:33;;;;;;;109.07;58.03;;;23.40;88.10;;;;;;4973267;28;95184;-41
2023/09/11 09:27:00;;;;;;;108.93;58.17;;;23.50;87.40;;;;;;4966150;28;99277;-41
2023/09/11 09:29:26;;;;;;;109.28;58.40;;;23.60;87.70;;;;;;4970297;28;95119;-41
2023/09/11 09:31:52;;;;;;;110.05;58.80;;;23.60;86.20;;;;;;4963325;28;95195;-42
2023/09/11 09:34:17;;;;;;;110.65;58.50;;;23.60;86.10;;;;;;4966892;28;95224;-40
2023/09/11 09:36:53;;;;;;;108.75;58.33;;;23.60;86.40;;;;;;4970584;28;94998;-41
2023/09/11 09:39:19;;;;;;;109.05;58.17;;;23.70;87.20;;;;;;4966275;28;95048;-43
2023/09/11 09:41:53;;;;;;;110.40;58.40;;;23.70;87.20;;;;;;4968516;28;95305;-42
2023/09/11 09:44:35;;;;;;;112.20;59.03;;;23.80;85.70;;;;;;4962353;28;96037;-40
2023/09/11 09:47:15;;;;;;;109.20;58.33;;;23.80;85.00;;;;;;4965596;28;95093;-44
2023/09/11 09:49:45;;;;;;;109.43;58.60;;;23.80;85.90;;;;;;4968165;28;94819;-40
2023/09/11 09:52:11;;;;;;;108.88;58.22;;;23.90;85.90;;;;;;4965543;28;99055;-42
2023/09/11 09:54:49;;;;;;;111.00;58.85;;;23.90;84.90;;;;;;4966833;28;95027;-42
2023/09/11 09:57:20;;;;;;;109.90;58.20;;;24.00;83.70;;;;;;4969631;28;96557;-42
2023/09/11 09:59:53;;;;;;;109.47;58.53;;;23.90;84.10;;;;;;4963623;28;96150;-40
2023/09/11 10:02:31;;;;;;;110.25;58.67;;;24.00;84.50;;;;;;4968859;28;100691;-40
2023/09/11 10:05:03;;;;;;;111.80;58.47;;;24.10;84.70;;;;;;4960191;28;95847;-41
2023/09/11 10:07:40;;;;;;;110.47;58.25;;;24.10;84.00;;;;;;4969036;28;95462;-40
2023/09/11 10:10:25;;;;;;;110.03;58.40;;;24.10;83.20;;;;;;4970570;28;94841;-40
2023/09/11 10:13:02;;;;;;;111.30;58.47;;;24.20;84.00;;;;;;4970255;28;95466;-40
2023/09/11 10:15:29;;;;;;;110.03;58.55;;;24.20;83.70;;;;;;4964265;28;95698;-41
2023/09/11 10:17:55;;;;;;;109.95;58.45;;;24.20;82.30;;;;;;4966121;28;96015;-42
2023/09/11 10:20:22;;;;;;;111.30;58.40;;;24.20;83.30;;;;;;4956023;28;95344;-40
2023/09/11 10:22:48;;;;;;;109.50;58.13;;;24.30;81.90;;;;;;4968454;28;96656;-42
2023/09/11 10:25:14;;;;;;;110.53;58.58;;;24.30;82.90;;;;;;4970158;28;96258;-40
2023/09/11 10:27:40;;;;;;;110.55;58.65;;;24.40;83.20;;;;;;4966255;28;95204;-41
2023/09/11 10:30:08;;;;;;;109.78;58.42;;;24.40;83.00;;;;;;4963118;28;95446;-40
2023/09/11 10:32:59;;;;;;;109.60;58.30;;;24.40;82.80;;;;;;4962596;28;98630;-43
2023/09/11 10:35:29;;;;;;;110.18;58.58;;;24.50;82.70;;;;;;4967496;28;101406;-39
2023/09/11 10:37:57;;;;;;;110.25;58.22;;;24.50;82.50;;;;;;4963814;28;94679;-40
2023/09/11 10:40:30;;;;;;;110.35;58.50;;;24.50;82.40;;;;;;4966565;28;95161;-40
2023/09/11 10:42:55;;;;;;;110.82;58.42;;;24.50;81.30;;;;;;4967425;28;95910;-41
2023/09/11 10:45:28;;;;;;;110.97;58.53;;;24.60;82.20;;;;;;4967018;28;95657;-39
2023/09/11 10:47:54;;;;;;;110.28;58.70;;;24.60;80.80;;;;;;4968994;28;96383;-40
2023/09/11 10:50:23;;;;;;;112.07;58.38;;;24.70;81.20;;;;;;4958553;28;97071;-40
2023/09/11 10:52:53;;;;;;;109.80;58.40;;;24.70;81.40;;;;;;4967553;28;97509;-39
2023/09/11 10:55:22;;;;;;;110.55;58.55;;;24.70;81.40;;;;;;4966852;28;95899;-40
2023/09/11 10:57:50;;;;;;;109.38;58.05;;;24.70;80.20;;;;;;4964968;28;94709;-41
2023/09/11 11:00:16;;;;;;;110.68;58.40;;;24.80;80.40;;;;;;4967504;28;94842;-40
2023/09/11 11:02:43;;;;;;;111.32;58.78;;;24.80;81.10;;;;;;4943840;28;97078;-40
2023/09/11 11:05:15;;;;;;;111.00;58.55;;;24.80;80.70;;;;;;4969580;28;95410;-40
2023/09/11 11:07:41;;;;;;;111.03;59.17;;;24.80;80.30;;;;;;4964307;28;95669;-40
2023/09/11 11:10:12;;;;;;;111.53;58.75;;;24.90;80.50;;;;;;4968602;28;96079;-40
2023/09/11 11:12:40;;;;;;;110.63;58.58;;;24.90;80.00;;;;;;4960248;28;95908;-41
2023/09/11 11:15:19;;;;;;;110.65;59.00;;;24.90;80.50;;;;;;4964750;28;95325;-41
2023/09/11 11:17:45;;;;;;;111.47;58.78;;;25.00;80.00;;;;;;4967440;28;96926;-43
2023/09/11 11:20:11;;;;;;;110.85;59.05;;;25.00;79.60;;;;;;4964660;28;97209;-41
2023/09/11 11:22:41;;;;;;;111.70;59.22;;;25.00;79.60;;;;;;4976110;28;94875;-40
2023/09/11 11:25:12;;;;;;;111.20;58.88;;;25.00;80.40;;;;;;4960784;28;100634;-40
2023/09/11 11:27:38;;;;;;;110.53;58.80;;;25.10;79.90;;;;;;4965046;28;97673;-42
2023/09/11 11:30:05;;;;;;;111.03;58.75;;;25.10;79.10;;;;;;4964653;28;94759;-40
2023/09/11 11:32:36;;;;;;;111.45;58.97;;;25.10;79.20;;;;;;4958371;28;99338;-41
2023/09/11 11:35:04;;;;;;;111.15;59.30;;;25.20;79.30;;;;;;4969370;28;95895;-40
2023/09/11 11:37:35;;;;;;;112.25;59.17;;;25.20;79.60;;;;;;4966483;28;94827;-40
2023/09/11 11:40:01;;;;;;;111.75;58.72;;;25.20;78.60;;;;;;4967475;28;95071;-40
2023/09/11 11:42:27;;;;;;;113.07;59.22;;;25.20;78.40;;;;;;4968208;28;94951;-40
2023/09/11 11:44:53;;;;;;;110.95;58.90;;;25.30;79.50;;;;;;4961891;28;95190;-40
2023/09/11 11:47:20;;;;;;;110.47;58.67;;;25.30;78.30;;;;;;4966013;28;95038;-40
2023/09/11 11:49:47;;;;;;;111.90;58.97;;;25.30;78.00;;;;;;4965089;28;94906;-40
2023/09/11 11:52:12;;;;;;;110.93;58.92;;;25.40;78.60;;;;;;4968792;28;95365;-40
2023/09/11 11:54:38;;;;;;;111.38;58.95;;;25.40;78.60;;;;;;4961188;28;95344;-40
2023/09/11 11:57:05;;;;;;;110.57;58.80;;;25.40;78.50;;;;;;4964757;28;95939;-40
2023/09/11 11:59:33;;;;;;;110.97;58.90;;;25.40;78.20;;;;;;4961449;28;95517;-40
2023/09/11 12:01:59;;;;;;;112.00;59.17;;;25.40;77.80;;;;;;4968246;28;95053;-40
2023/09/11 12:04:25;;;;;;;112.72;59.35;;;25.40;78.70;;;;;;4962544;28;97187;-41
2023/09/11 12:06:54;;;;;;;111.07;58.95;;;25.50;78.40;;;;;;4970272;28;95563;-40
2023/09/11 12:09:21;;;;;;;111.15;59.10;;;25.50;77.80;;;;;;4967450;28;94908;-41
2023/09/11 12:11:49;;;;;;;110.93;58.83;;;25.60;78.30;;;;;;4963514;28;95019;-42
2023/09/11 12:14:15;;;;;;;112.03;59.40;;;25.60;77.60;;;;;;4966028;28;95078;-39
2023/09/11 12:16:41;;;;;;;112.15;59.20;;;25.60;77.20;;;;;;4967697;28;96086;-40
2023/09/11 12:19:07;;;;;;;112.22;59.42;;;25.70;77.40;;;;;;4970895;28;95227;-42